Atlantic City, NJ

9:44 PM EDT on July 30, 2016 (GMT -0400)
APRSWXNET | | Change Station

Elev 9 ft 39.40 °N, 74.47 °W | Updated 24 minutes ago

Mostly Cloudy
Mostly Cloudy
78 °F
Feels Like 80 °F
N
0
Wind Variable Wind from East
Gusts 0.0 mph

Today
High -- | Low -- °F
--% Chance of Precip.
Yesterday
High -- | Low -- °F
Precip. -- in
Pressure 30.01 in
Visibility 10.0 miles
Clouds Scattered Clouds 2100 ft
Mostly Cloudy 11000 ft
Heat Index 80 °F
Dew Point 74 °F
Humidity 89%
Rainfall in
Snow Depth Not available.
5:56 AM 8:11 PM
Waning Crescent, 9% visible
METAR KACY 310054Z 12006KT 10SM SCT021 BKN110 25/22 A3002 RMK AO2 SLP163 T02500217
Pressure 30.01 in
Visibility 10.0 miles
Clouds Scattered Clouds 2100 ft
Mostly Cloudy 11000 ft
Heat Index 80 °F
Dew Point 74 °F
Humidity 89%
Rainfall in
Snow Depth Not available.
5:56 AM 8:11 PM
Waning Crescent, 9% visible
METAR KACY 310054Z 12006KT 10SM SCT021 BKN110 25/22 A3002 RMK AO2 SLP163 T02500217

10-Day Weather Forecast

Almanac

Astronomy

Jul. 30, 2016 Rise Set
Actual Time
Civil Twilight
Nautical Twilight
Astronomical Twilight
Moon
Length of Visible Light
Length of Day
Tomorrow will be .
, % of the Moon is Illuminated

Today's Extremes

State Highs State Lows

Community

WunderPhotos

Upload Photos

1,928,702 photos uploaded!

WunderBlog® & News

Nearby

Air Quality

  Air Quality AQ Index Pollutant
Not available.

Snow Depth

Station Depth Elevation

Earthquake Activity

City Distance Mag. Time & Date
Minimum magnitude displayed is 2.5.

Coastal Water Temperatures

Place Temperature

Stations

Nearby Weather Stations

Station Location Temp. Windchill Dew Point Humidity Wind Precip. Elev Updated Type
                   

Watches & Warnings

There are currently no watches in effect.